Aviation Digital Data Service (ADDS)

Output produced by METARs form (1258 UTC 11 February 2016)
found at http://aviationweather.gov/adds/metars/
 
KPIT 111120Z 1112/1218 29010G18KT P6SM OVC025 
     TEMPO 1112/1114 2SM -SHSN BKN016 
     FM120000 28007KT P6SM SCT035